Time;durP1;ratioP1;P1;durP2;ratioP2;P2;SDS_P1;SDS_P2;PMS_P1;PMS_P2;Temp;Humidity;BMP_temperature;BMP_pressure;BME280_temperature;BME280_humidity;BME280_pressure;Samples;Min_cycle;Max_cycle;Signal;HPM_P1;HPM_P2
2023/07/03 00:00:48;;;;;;;13.85;6.78;;;23.00;57.40;;;;;;5013635;28;20032;-43
2023/07/03 00:03:14;;;;;;;11.55;5.93;;;23.00;57.40;;;;;;5013468;28;20045;-45
2023/07/03 00:05:44;;;;;;;15.82;6.47;;;22.90;57.30;;;;;;5013068;28;20060;-47
2023/07/03 00:08:15;;;;;;;15.02;5.78;;;22.90;57.40;;;;;;5012705;28;20033;-46
2023/07/03 00:10:41;;;;;;;13.73;6.05;;;22.90;57.40;;;;;;5013474;28;20105;-43
2023/07/03 00:13:08;;;;;;;14.88;6.32;;;22.90;57.50;;;;;;5013248;28;20432;-48
2023/07/03 00:15:33;;;;;;;11.43;6.10;;;23.00;57.60;;;;;;5014010;28;20014;-46
2023/07/03 00:17:59;;;;;;;12.90;5.95;;;22.90;57.40;;;;;;5013925;28;20073;-43
2023/07/03 00:20:27;;;;;;;12.50;6.60;;;22.90;57.60;;;;;;5014040;28;20030;-43
2023/07/03 00:22:54;;;;;;;16.08;6.03;;;22.90;57.60;;;;;;5013222;28;20034;-43
2023/07/03 00:25:21;;;;;;;13.55;5.90;;;22.90;57.80;;;;;;5004916;28;20057;-45
2023/07/03 00:27:47;;;;;;;14.73;6.20;;;22.90;57.60;;;;;;4996033;28;20504;-45
2023/07/03 00:30:14;;;;;;;11.50;5.80;;;23.00;57.80;;;;;;5013813;28;20061;-48
2023/07/03 00:32:40;;;;;;;13.32;5.35;;;23.00;57.70;;;;;;5014552;28;20029;-46
2023/07/03 00:35:06;;;;;;;13.00;5.90;;;23.00;57.70;;;;;;4995856;28;20026;-50
2023/07/03 00:37:33;;;;;;;12.20;5.97;;;23.00;57.70;;;;;;5013110;28;20084;-51
2023/07/03 00:39:59;;;;;;;11.57;5.95;;;23.00;57.70;;;;;;5012327;28;20489;-50
2023/07/03 00:42:27;;;;;;;10.43;5.50;;;23.00;57.80;;;;;;5012194;28;20037;-48
2023/07/03 00:44:53;;;;;;;10.98;5.10;;;23.00;57.70;;;;;;5008988;28;20037;-50
2023/07/03 00:47:20;;;;;;;11.48;5.60;;;23.00;57.70;;;;;;5000884;28;20021;-43
2023/07/03 00:49:46;;;;;;;11.32;5.75;;;23.00;57.80;;;;;;5013524;28;20033;-49
2023/07/03 00:52:12;;;;;;;14.10;5.80;;;23.00;57.70;;;;;;5012611;28;20029;-44
2023/07/03 00:54:42;;;;;;;11.60;5.88;;;23.00;57.70;;;;;;5011726;28;20092;-43
2023/07/03 00:57:12;;;;;;;13.20;5.47;;;23.00;57.80;;;;;;4994942;28;20052;-44
2023/07/03 00:59:38;;;;;;;11.05;5.22;;;22.90;57.80;;;;;;5012837;28;20036;-43
2023/07/03 01:02:40;;;;;;;11.25;5.78;;;23.00;57.90;;;;;;5012482;28;20030;-43
2023/07/03 01:05:14;;;;;;;11.57;5.03;;;22.90;57.80;;;;;;5011037;28;20025;-43
2023/07/03 01:07:41;;;;;;;13.63;5.00;;;22.90;57.90;;;;;;5011521;28;20042;-43
2023/07/03 01:10:15;;;;;;;10.60;5.70;;;22.90;57.90;;;;;;5011693;28;20037;-48
2023/07/03 01:12:44;;;;;;;10.48;5.60;;;22.90;58.00;;;;;;5012390;28;20030;-45
2023/07/03 01:15:15;;;;;;;9.85;5.28;;;22.90;58.00;;;;;;4995823;28;20053;-46
2023/07/03 01:17:43;;;;;;;10.43;5.20;;;22.90;58.00;;;;;;5012287;28;20029;-46
2023/07/03 01:20:13;;;;;;;11.35;5.15;;;22.90;58.10;;;;;;5012638;28;20033;-47
2023/07/03 01:22:58;;;;;;;11.65;5.72;;;22.90;58.00;;;;;;5012784;28;20112;-45
2023/07/03 01:25:25;;;;;;;11.57;5.47;;;22.90;58.10;;;;;;5008728;28;20484;-49
2023/07/03 01:27:52;;;;;;;11.25;5.43;;;22.90;58.10;;;;;;4994696;28;20026;-46
2023/07/03 01:30:19;;;;;;;10.40;5.53;;;22.90;58.20;;;;;;5011741;28;20034;-48
2023/07/03 01:32:49;;;;;;;9.85;4.72;;;22.90;58.10;;;;;;5013718;28;20026;-44
2023/07/03 01:35:16;;;;;;;11.70;5.70;;;22.90;58.10;;;;;;5011696;28;20028;-44
2023/07/03 01:37:46;;;;;;;11.70;5.25;;;22.90;58.20;;;;;;4994596;28;20101;-43
2023/07/03 01:40:16;;;;;;;11.18;5.40;;;22.90;58.20;;;;;;4994453;28;20030;-43
2023/07/03 01:42:42;;;;;;;10.50;4.82;;;22.90;58.30;;;;;;4993798;28;20026;-46
2023/07/03 01:45:09;;;;;;;9.93;5.25;;;22.90;58.30;;;;;;5012048;28;20379;-43
2023/07/03 01:47:37;;;;;;;11.05;5.65;;;22.90;58.20;;;;;;5026860;28;20100;-43
2023/07/03 01:50:07;;;;;;;10.60;5.82;;;22.90;58.20;;;;;;5012299;28;20037;-44
2023/07/03 01:52:51;;;;;;;9.85;4.90;;;23.00;58.30;;;;;;5012819;28;20036;-43
2023/07/03 01:55:41;;;;;;;11.32;5.97;;;23.00;58.50;;;;;;5011915;28;20018;-43
2023/07/03 01:58:29;;;;;;;12.73;5.60;;;22.90;58.50;;;;;;5011583;28;20396;-45
2023/07/03 02:01:04;;;;;;;12.00;5.10;;;23.00;58.30;;;;;;4993190;28;20053;-45
2023/07/03 02:03:52;;;;;;;13.98;5.53;;;23.00;58.40;;;;;;4994042;28;20496;-46
2023/07/03 02:06:24;;;;;;;9.25;5.18;;;23.00;58.80;;;;;;5006150;28;20176;-44
2023/07/03 02:08:51;;;;;;;14.80;5.68;;;23.00;58.70;;;;;;4993299;28;20033;-46
2023/07/03 02:11:21;;;;;;;12.65;5.38;;;23.00;58.60;;;;;;4994384;28;20022;-43
2023/07/03 02:13:51;;;;;;;11.75;5.70;;;23.00;58.70;;;;;;4993591;28;20025;-45
2023/07/03 02:16:18;;;;;;;10.77;4.78;;;23.00;58.70;;;;;;4993594;28;20397;-43
2023/07/03 02:18:46;;;;;;;11.55;5.15;;;23.00;58.90;;;;;;5009700;28;20033;-43
2023/07/03 02:21:13;;;;;;;9.90;5.13;;;22.90;59.00;;;;;;5000559;28;20030;-46
2023/07/03 02:23:40;;;;;;;11.88;5.72;;;22.90;58.80;;;;;;4994467;28;20270;-46
2023/07/03 02:26:07;;;;;;;10.40;5.20;;;22.90;58.70;;;;;;5011714;28;20038;-46
2023/07/03 02:28:32;;;;;;;11.43;5.38;;;22.90;58.60;;;;;;5011103;28;20442;-49
2023/07/03 02:30:59;;;;;;;13.00;5.53;;;22.90;58.60;;;;;;5010789;28;20057;-43
2023/07/03 02:33:25;;;;;;;10.20;5.22;;;22.90;58.30;;;;;;4998133;28;20092;-47
2023/07/03 02:35:51;;;;;;;11.57;5.00;;;22.90;58.00;;;;;;5011181;28;20096;-48
2023/07/03 02:38:16;;;;;;;13.95;5.30;;;22.90;58.10;;;;;;5011754;28;20026;-46
2023/07/03 02:40:43;;;;;;;12.52;5.20;;;22.90;57.80;;;;;;4993619;28;20040;-48
2023/07/03 02:43:09;;;;;;;13.52;5.07;;;22.90;57.70;;;;;;5010264;28;20057;-48
2023/07/03 02:45:38;;;;;;;12.38;5.10;;;22.90;57.60;;;;;;5005554;28;20032;-49
2023/07/03 02:48:06;;;;;;;11.35;5.75;;;22.90;57.50;;;;;;5026669;28;20026;-49
2023/07/03 02:50:34;;;;;;;14.13;5.55;;;22.90;57.30;;;;;;4993900;28;20052;-51
2023/07/03 02:53:00;;;;;;;10.55;5.10;;;22.80;57.00;;;;;;4993373;28;20022;-48
2023/07/03 02:55:26;;;;;;;11.30;5.40;;;22.80;57.20;;;;;;4993057;28;20283;-50
2023/07/03 02:57:54;;;;;;;11.88;4.85;;;22.80;57.10;;;;;;4993996;28;20018;-48
2023/07/03 03:00:20;;;;;;;12.00;5.38;;;22.80;56.90;;;;;;4992916;28;20060;-48
2023/07/03 03:02:48;;;;;;;12.95;5.28;;;22.80;56.90;;;;;;4993470;28;20330;-49
2023/07/03 03:05:14;;;;;;;11.35;5.10;;;22.80;56.50;;;;;;4992912;28;20448;-49
2023/07/03 03:07:41;;;;;;;15.50;5.63;;;22.90;56.40;;;;;;4992679;28;20037;-47
2023/07/03 03:10:07;;;;;;;11.15;5.72;;;22.80;56.50;;;;;;5010616;28;20386;-49
2023/07/03 03:12:33;;;;;;;11.20;5.15;;;22.90;56.50;;;;;;5010690;28;20080;-50
2023/07/03 03:14:59;;;;;;;11.60;5.22;;;22.80;56.20;;;;;;4992967;28;20021;-51
2023/07/03 03:17:25;;;;;;;13.75;5.97;;;22.80;56.30;;;;;;4993222;28;20026;-49
2023/07/03 03:19:51;;;;;;;11.68;5.78;;;22.80;56.40;;;;;;4993326;28;20034;-51
2023/07/03 03:22:17;;;;;;;12.52;5.53;;;22.80;56.10;;;;;;4993082;28;20029;-49
2023/07/03 03:24:43;;;;;;;13.07;5.60;;;22.80;56.20;;;;;;4992865;28;20063;-50
2023/07/03 03:27:09;;;;;;;14.48;5.45;;;22.80;56.40;;;;;;5011125;28;20026;-49
2023/07/03 03:29:38;;;;;;;11.65;4.90;;;22.80;56.00;;;;;;4993157;28;20386;-48
2023/07/03 03:32:05;;;;;;;12.65;5.97;;;22.80;56.10;;;;;;4997208;28;20080;-49
2023/07/03 03:34:34;;;;;;;15.10;5.38;;;22.80;56.10;;;;;;4992838;28;20044;-49
2023/07/03 03:37:01;;;;;;;13.80;5.70;;;22.80;56.10;;;;;;4992907;28;20564;-48
2023/07/03 03:39:27;;;;;;;13.30;5.28;;;22.80;56.10;;;;;;4993249;28;20038;-50
2023/07/03 03:41:54;;;;;;;11.93;5.45;;;22.80;55.70;;;;;;4992624;28;20034;-47
2023/07/03 03:44:20;;;;;;;15.25;5.85;;;22.80;55.90;;;;;;5014970;28;20071;-47
2023/07/03 03:46:47;;;;;;;11.93;5.40;;;22.80;55.70;;;;;;4997217;28;20511;-46
2023/07/03 03:49:13;;;;;;;12.75;5.25;;;22.80;56.00;;;;;;5028975;28;20040;-48
2023/07/03 03:51:40;;;;;;;11.85;6.00;;;22.80;55.60;;;;;;4996406;28;20233;-48
2023/07/03 03:54:07;;;;;;;12.40;5.90;;;22.80;55.80;;;;;;4996014;28;20036;-49
2023/07/03 03:56:33;;;;;;;13.25;5.68;;;22.80;55.50;;;;;;4996285;28;20053;-46
2023/07/03 03:59:01;;;;;;;14.60;6.15;;;22.80;55.70;;;;;;4999840;28;20105;-50
2023/07/03 04:01:27;;;;;;;13.15;5.18;;;22.80;55.80;;;;;;5013710;28;20025;-50
2023/07/03 04:03:53;;;;;;;13.43;6.07;;;22.80;55.70;;;;;;4995936;28;20433;-48
2023/07/03 04:06:19;;;;;;;11.63;5.47;;;22.80;55.50;;;;;;5019731;23;20049;-55
2023/07/03 04:08:45;;;;;;;14.02;6.13;;;22.80;55.60;;;;;;5018460;28;20033;-55
2023/07/03 04:11:11;;;;;;;12.60;5.95;;;22.80;55.40;;;;;;5015606;28;20024;-56
2023/07/03 04:13:37;;;;;;;13.27;7.35;;;22.70;55.30;;;;;;5014995;28;20030;-56
2023/07/03 04:16:04;;;;;;;10.07;5.82;;;22.80;55.40;;;;;;5013388;28;20109;-54
2023/07/03 04:18:31;;;;;;;13.77;6.32;;;22.80;55.50;;;;;;5014120;28;20021;-54
2023/07/03 04:20:57;;;;;;;13.15;5.97;;;22.80;55.30;;;;;;5014093;28;20030;-53
2023/07/03 04:23:24;;;;;;;11.98;5.85;;;22.80;55.30;;;;;;5013915;28;20021;-56
2023/07/03 04:25:51;;;;;;;14.40;6.22;;;22.70;55.40;;;;;;5012281;28;20038;-55
2023/07/03 04:28:19;;;;;;;13.10;6.38;;;22.80;55.10;;;;;;5014076;28;20486;-56
2023/07/03 04:30:46;;;;;;;11.18;5.50;;;22.70;55.20;;;;;;5003555;28;20036;-54
2023/07/03 04:33:12;;;;;;;13.55;6.30;;;22.80;55.30;;;;;;5005497;28;20031;-53
2023/07/03 04:35:38;;;;;;;14.25;6.72;;;22.80;55.00;;;;;;5003469;28;20028;-56
2023/07/03 04:38:04;;;;;;;16.38;6.13;;;22.80;55.10;;;;;;5004826;28;20034;-52
2023/07/03 04:40:30;;;;;;;11.95;6.13;;;22.80;55.30;;;;;;5012955;28;20022;-55
2023/07/03 04:42:56;;;;;;;14.45;6.32;;;22.80;55.10;;;;;;5012450;28;20034;-56
2023/07/03 04:45:24;;;;;;;13.15;6.28;;;22.80;55.20;;;;;;5012638;28;20032;-55
2023/07/03 04:47:51;;;;;;;14.32;6.38;;;22.80;55.20;;;;;;5013481;28;20041;-54
2023/07/03 04:50:17;;;;;;;12.25;6.63;;;22.80;55.20;;;;;;5013667;28;20077;-55
2023/07/03 04:52:45;;;;;;;13.43;6.57;;;22.80;55.80;;;;;;5004956;28;20406;-54
2023/07/03 04:55:12;;;;;;;12.50;6.22;;;22.80;55.20;;;;;;5003027;28;20101;-56
2023/07/03 04:57:39;;;;;;;12.82;6.55;;;22.80;55.00;;;;;;5006620;28;20574;-52
2023/07/03 05:00:16;;;;;;;13.05;6.90;;;22.80;55.20;;;;;;5010375;28;20025;-56
2023/07/03 05:02:48;;;;;;;15.52;7.50;;;22.80;55.30;;;;;;5011912;28;20025;-53
2023/07/03 05:05:15;;;;;;;13.27;6.57;;;22.80;55.10;;;;;;5010628;28;20089;-55
2023/07/03 05:07:43;;;;;;;13.43;6.72;;;22.80;55.20;;;;;;5011817;28;20046;-55
2023/07/03 05:10:11;;;;;;;15.73;6.40;;;22.70;54.70;;;;;;5004113;28;20037;-55
2023/07/03 05:12:37;;;;;;;16.13;6.78;;;22.70;55.10;;;;;;5006418;28;20026;-52
2023/07/03 05:15:07;;;;;;;12.05;6.25;;;22.80;55.20;;;;;;5009480;28;20026;-54
2023/07/03 05:17:34;;;;;;;;;;;22.70;55.20;;;;;;5007387;28;20095;-55
2023/07/03 05:20:01;;;;;;;14.18;7.00;;;22.80;55.20;;;;;;5008797;28;20357;-52
2023/07/03 05:22:27;;;;;;;10.70;6.05;;;22.80;55.20;;;;;;5004669;28;20030;-55
2023/07/03 05:24:55;;;;;;;13.38;6.22;;;22.80;55.00;;;;;;5010515;28;20405;-52
2023/07/03 05:27:21;;;;;;;14.30;6.50;;;22.80;55.10;;;;;;5004900;28;20022;-54
2023/07/03 05:29:46;;;;;;;10.48;5.93;;;22.70;55.10;;;;;;5011337;28;20105;-48
2023/07/03 05:32:12;;;;;;;12.25;6.32;;;22.70;55.20;;;;;;5009348;28;20482;-55
2023/07/03 05:34:38;;;;;;;12.55;6.57;;;22.70;55.10;;;;;;5005940;28;20026;-51
2023/07/03 05:37:05;;;;;;;12.25;6.47;;;22.80;55.20;;;;;;5011509;28;20026;-51
2023/07/03 05:39:31;;;;;;;14.27;6.70;;;22.80;55.30;;;;;;5003729;28;20445;-55
2023/07/03 05:41:57;;;;;;;12.25;6.50;;;22.80;55.40;;;;;;5011372;28;20104;-53
2023/07/03 05:44:23;;;;;;;19.52;6.97;;;22.80;55.30;;;;;;5011564;28;20104;-52
2023/07/03 05:46:50;;;;;;;14.75;6.70;;;22.80;56.30;;;;;;5012268;28;20117;-55
2023/07/03 05:49:15;;;;;;;24.00;8.23;;;22.80;55.90;;;;;;5012382;28;20457;-54
2023/07/03 05:51:41;;;;;;;27.02;8.00;;;22.80;58.80;;;;;;5009007;28;20060;-54
2023/07/03 05:54:07;;;;;;;26.15;7.65;;;22.80;58.90;;;;;;5011708;28;20037;-55
2023/07/03 05:56:33;;;;;;;17.25;7.05;;;22.80;57.20;;;;;;5012347;28;20021;-51
2023/07/03 05:58:58;;;;;;;18.25;6.82;;;22.80;56.60;;;;;;5012262;28;20324;-54
2023/07/03 06:01:24;;;;;;;12.40;6.82;;;22.80;56.80;;;;;;5012373;28;20037;-55
2023/07/03 06:03:50;;;;;;;21.95;7.38;;;22.80;56.50;;;;;;5009802;28;20026;-54
2023/07/03 06:06:16;;;;;;;21.35;7.30;;;22.80;58.00;;;;;;5009088;28;20109;-52
2023/07/03 06:08:41;;;;;;;21.73;7.28;;;22.80;56.90;;;;;;5009886;28;20029;-54
2023/07/03 06:11:07;;;;;;;19.65;6.57;;;22.90;58.20;;;;;;5009793;28;20452;-55
2023/07/03 06:13:33;;;;;;;20.52;6.75;;;22.90;58.10;;;;;;5010737;28;20030;-54
2023/07/03 06:15:59;;;;;;;17.30;7.40;;;22.90;58.10;;;;;;5010112;28;20030;-55
2023/07/03 06:18:25;;;;;;;25.15;7.75;;;22.90;58.90;;;;;;5007888;28;20022;-54
2023/07/03 06:20:50;;;;;;;21.25;7.38;;;22.90;59.00;;;;;;5009686;28;20018;-56
2023/07/03 06:23:16;;;;;;;19.23;7.32;;;22.90;59.00;;;;;;5011745;28;20026;-56
2023/07/03 06:25:42;;;;;;;17.92;6.55;;;22.90;56.90;;;;;;5011832;28;20478;-55
2023/07/03 06:28:08;;;;;;;17.60;6.70;;;22.90;55.70;;;;;;5011805;28;20029;-54
2023/07/03 06:30:34;;;;;;;15.50;7.18;;;22.90;55.70;;;;;;5011828;28;20095;-53
2023/07/03 06:33:00;;;;;;;16.38;7.05;;;22.90;55.50;;;;;;5011909;28;20034;-55
2023/07/03 06:35:25;;;;;;;19.88;7.25;;;22.80;56.00;;;;;;5011673;28;20109;-56
2023/07/03 06:37:58;;;;;;;16.15;6.82;;;22.90;55.70;;;;;;5011923;28;20018;-56
2023/07/03 06:40:24;;;;;;;15.27;6.72;;;22.90;55.90;;;;;;5011957;28;20052;-54
2023/07/03 06:42:52;;;;;;;20.85;6.88;;;22.80;55.80;;;;;;5011771;28;20589;-53
2023/07/03 06:45:19;;;;;;;15.50;6.05;;;22.90;56.60;;;;;;5010300;28;20113;-56
2023/07/03 06:47:45;;;;;;;23.02;6.53;;;22.80;56.30;;;;;;5011802;28;20393;-56
2023/07/03 06:50:11;;;;;;;18.73;6.97;;;22.80;56.60;;;;;;5011583;28;20033;-53
2023/07/03 06:52:37;;;;;;;23.33;6.50;;;22.90;56.20;;;;;;5011365;28;20520;-54
2023/07/03 06:55:07;;;;;;;29.52;7.50;;;22.80;56.60;;;;;;5005561;28;20022;-51
2023/07/03 06:57:35;;;;;;;19.48;6.38;;;22.80;55.40;;;;;;5002465;28;20029;-56
2023/07/03 07:00:01;;;;;;;30.00;6.93;;;22.70;55.20;;;;;;5008182;28;20029;-56
2023/07/03 07:02:27;;;;;;;17.95;6.32;;;22.70;54.10;;;;;;5008298;28;20076;-55
2023/07/03 07:04:55;;;;;;;25.25;6.43;;;22.70;53.90;;;;;;5007964;28;20038;-55
2023/07/03 07:07:21;;;;;;;25.77;6.78;;;22.70;55.00;;;;;;5001510;28;20068;-54
2023/07/03 07:09:46;;;;;;;24.45;6.65;;;22.70;56.60;;;;;;5006812;28;20136;-51
2023/07/03 07:12:12;;;;;;;25.15;7.32;;;22.70;55.10;;;;;;5009084;28;20026;-53
2023/07/03 07:14:38;;;;;;;18.55;6.20;;;22.60;54.10;;;;;;5008919;28;20030;-52
2023/07/03 07:17:04;;;;;;;24.00;7.13;;;22.70;54.60;;;;;;5007699;28;20022;-49
2023/07/03 07:19:30;;;;;;;21.60;6.45;;;22.70;56.10;;;;;;5012036;28;20053;-53
2023/07/03 07:21:55;;;;;;;15.10;6.03;;;22.70;55.60;;;;;;5013003;28;20084;-54
2023/07/03 07:24:24;;;;;;;19.02;6.55;;;22.80;56.00;;;;;;5011085;28;20485;-50
2023/07/03 07:26:54;;;;;;;21.15;6.63;;;22.80;55.60;;;;;;5012759;28;20113;-51
2023/07/03 07:29:21;;;;;;;16.65;6.53;;;22.80;57.20;;;;;;5004995;28;20524;-50
2023/07/03 07:31:47;;;;;;;18.85;6.40;;;22.80;57.60;;;;;;5012361;28;20048;-54
2023/07/03 07:34:13;;;;;;;20.20;5.93;;;22.80;58.50;;;;;;5012602;28;20556;-53
2023/07/03 07:36:40;;;;;;;15.70;5.88;;;22.70;57.30;;;;;;5012829;28;20033;-55
2023/07/03 07:39:06;;;;;;;18.10;7.20;;;22.70;55.90;;;;;;5013063;28;20041;-54
2023/07/03 07:41:32;;;;;;;19.40;6.43;;;22.70;57.80;;;;;;5012715;28;20030;-51
2023/07/03 07:43:58;;;;;;;23.10;7.32;;;22.70;54.50;;;;;;5012689;28;20413;-54
2023/07/03 07:46:29;;;;;;;17.08;6.00;;;22.70;56.80;;;;;;5012335;28;20144;-54
2023/07/03 07:48:56;;;;;;;17.48;6.97;;;22.70;54.40;;;;;;5012902;28;20096;-54
2023/07/03 07:51:24;;;;;;;20.60;6.28;;;22.70;56.40;;;;;;5012224;28;20026;-55
2023/07/03 07:53:51;;;;;;;13.75;5.95;;;22.80;54.80;;;;;;5012423;28;20118;-54
2023/07/03 07:56:17;;;;;;;14.73;5.35;;;22.80;55.60;;;;;;5012413;28;20083;-52
2023/07/03 07:58:42;;;;;;;17.73;6.10;;;22.70;54.90;;;;;;5012746;28;20538;-51
2023/07/03 08:01:11;;;;;;;16.80;6.00;;;22.70;54.50;;;;;;5012553;28;20037;-55
2023/07/03 08:03:39;;;;;;;26.07;6.17;;;22.70;55.10;;;;;;5012268;28;20530;-54
2023/07/03 08:06:05;;;;;;;19.42;6.35;;;22.70;54.10;;;;;;5011747;28;20276;-49
2023/07/03 08:08:32;;;;;;;15.25;6.10;;;22.70;55.10;;;;;;5012361;28;20034;-50
2023/07/03 08:11:03;;;;;;;19.33;5.88;;;22.70;55.10;;;;;;5012055;28;20026;-55
2023/07/03 08:13:31;;;;;;;18.67;5.57;;;22.70;54.80;;;;;;5010905;28;20500;-53
2023/07/03 08:15:56;;;;;;;21.25;6.18;;;22.70;53.00;;;;;;5012193;28;20061;-50
2023/07/03 08:18:23;;;;;;;21.40;5.85;;;22.80;53.50;;;;;;5012699;28;20026;-51
2023/07/03 08:20:50;;;;;;;22.55;5.93;;;22.70;53.60;;;;;;5012122;28;20037;-50
2023/07/03 08:23:16;;;;;;;19.33;5.13;;;22.70;52.70;;;;;;5012159;28;20052;-53
2023/07/03 08:25:42;;;;;;;19.95;6.10;;;22.70;52.30;;;;;;5011198;28;20042;-50
2023/07/03 08:28:11;;;;;;;20.65;5.68;;;22.70;53.20;;;;;;5012212;28;20457;-49
2023/07/03 08:30:37;;;;;;;17.55;6.20;;;22.80;54.40;;;;;;5010835;28;20112;-52
2023/07/03 08:33:03;;;;;;;23.48;7.10;;;22.80;54.00;;;;;;5012034;28;20404;-49
2023/07/03 08:35:29;;;;;;;31.08;6.55;;;22.80;55.00;;;;;;5011464;28;20026;-51
2023/07/03 08:37:55;;;;;;;24.38;6.10;;;22.90;54.10;;;;;;5011476;28;20034;-53
2023/07/03 08:40:22;;;;;;;23.90;6.05;;;22.80;55.50;;;;;;5011578;28;20032;-52
2023/07/03 08:42:53;;;;;;;20.88;6.45;;;22.80;56.00;;;;;;5010674;28;20029;-51
2023/07/03 08:45:21;;;;;;;17.10;6.55;;;22.80;56.00;;;;;;5010919;28;20029;-49
2023/07/03 08:47:50;;;;;;;14.77;5.85;;;22.80;55.90;;;;;;5011718;28;20110;-50
2023/07/03 08:50:18;;;;;;;15.80;5.70;;;22.80;55.70;;;;;;5010964;28;20410;-49
2023/07/03 08:53:00;;;;;;;14.80;5.88;;;22.80;55.20;;;;;;5011593;28;20540;-52
2023/07/03 08:55:49;;;;;;;14.82;5.68;;;22.80;55.10;;;;;;5011088;28;20026;-48
2023/07/03 08:58:15;;;;;;;12.77;5.28;;;22.80;55.00;;;;;;5011161;28;20526;-49
2023/07/03 09:00:57;;;;;;;13.75;5.65;;;22.90;55.00;;;;;;5010802;28;20037;-52
2023/07/03 09:03:41;;;;;;;11.55;5.18;;;22.90;54.90;;;;;;5010890;28;20030;-48
2023/07/03 09:06:14;;;;;;;14.02;5.78;;;22.90;54.80;;;;;;5011050;28;20026;-51
2023/07/03 09:08:55;;;;;;;14.98;5.80;;;22.90;54.90;;;;;;5011248;28;20429;-50
2023/07/03 09:11:24;;;;;;;15.80;5.80;;;22.90;55.00;;;;;;5010797;28;20458;-47
2023/07/03 09:13:55;;;;;;;14.45;6.35;;;22.90;55.00;;;;;;5011103;28;20034;-52
2023/07/03 09:16:23;;;;;;;15.60;6.13;;;22.90;54.90;;;;;;5009682;28;20053;-52
2023/07/03 09:18:51;;;;;;;14.82;5.50;;;22.90;55.00;;;;;;5011140;28;20471;-54
2023/07/03 09:21:17;;;;;;;14.00;5.97;;;23.00;55.20;;;;;;5010763;28;20103;-51
2023/07/03 09:23:46;;;;;;;13.38;5.40;;;22.90;55.10;;;;;;5010880;28;20478;-53
2023/07/03 09:26:22;;;;;;;14.57;5.90;;;22.90;55.20;;;;;;5010572;28;20551;-49
2023/07/03 09:28:49;;;;;;;12.63;5.85;;;23.00;55.00;;;;;;5010770;28;20029;-49
2023/07/03 09:31:16;;;;;;;14.13;5.85;;;23.00;55.20;;;;;;5010433;28;20034;-47
2023/07/03 09:33:42;;;;;;;11.38;5.95;;;22.90;55.10;;;;;;5010406;28;20120;-47
2023/07/03 09:36:36;;;;;;;14.55;5.47;;;23.00;55.10;;;;;;5010338;28;20116;-46
2023/07/03 09:39:09;;;;;;;15.07;6.05;;;22.90;55.00;;;;;;5010467;28;20034;-52
2023/07/03 09:41:36;;;;;;;11.50;5.72;;;23.00;55.10;;;;;;5009629;28;20038;-47
2023/07/03 09:44:17;;;;;;;14.68;5.78;;;23.00;55.30;;;;;;5010440;28;20474;-50
2023/07/03 09:46:43;;;;;;;14.98;6.18;;;22.90;54.90;;;;;;5008932;28;20029;-47
2023/07/03 09:49:30;;;;;;;17.33;6.43;;;23.00;55.10;;;;;;5010304;28;20026;-51
2023/07/03 09:51:58;;;;;;;13.02;6.20;;;23.00;55.40;;;;;;5010422;28;20070;-48
2023/07/03 09:54:27;;;;;;;11.98;5.80;;;23.00;55.80;;;;;;5010176;28;20053;-48
2023/07/03 09:56:55;;;;;;;16.88;6.40;;;23.00;55.40;;;;;;5010184;28;20033;-48
2023/07/03 09:59:23;;;;;;;12.82;5.70;;;22.90;55.40;;;;;;5009430;28;20026;-49
2023/07/03 10:01:55;;;;;;;14.57;6.32;;;22.90;55.40;;;;;;5009244;28;20030;-47
2023/07/03 10:04:21;;;;;;;14.77;6.22;;;22.90;55.60;;;;;;5009113;28;20045;-46
2023/07/03 10:07:04;;;;;;;12.13;5.65;;;22.90;55.60;;;;;;5008645;28;20033;-48
2023/07/03 10:09:33;;;;;;;13.80;6.00;;;22.90;56.30;;;;;;5009834;28;20512;-47
2023/07/03 10:12:11;;;;;;;13.02;6.38;;;22.90;55.90;;;;;;5009983;28;20022;-46
2023/07/03 10:14:42;;;;;;;20.70;6.47;;;22.90;55.90;;;;;;5009982;28;20405;-47
2023/07/03 10:17:12;;;;;;;15.75;6.55;;;22.90;55.70;;;;;;5010325;28;20109;-49
2023/07/03 10:19:44;;;;;;;22.52;6.90;;;22.90;55.80;;;;;;5009840;28;20422;-47
2023/07/03 10:22:11;;;;;;;14.63;5.57;;;22.90;56.00;;;;;;5009600;28;20026;-47
2023/07/03 10:24:39;;;;;;;16.88;6.07;;;22.90;56.10;;;;;;5009387;28;20037;-49
2023/07/03 10:27:06;;;;;;;12.57;6.20;;;22.90;56.20;;;;;;5009517;28;20022;-46
2023/07/03 10:29:41;;;;;;;12.65;5.55;;;22.90;56.20;;;;;;5010113;28;20034;-52
2023/07/03 10:32:13;;;;;;;15.63;6.18;;;22.90;56.20;;;;;;5009854;28;20080;-49
2023/07/03 10:34:46;;;;;;;15.55;6.80;;;22.90;56.20;;;;;;5009353;28;20037;-52
2023/07/03 10:37:14;;;;;;;17.42;7.50;;;23.00;56.60;;;;;;5009715;28;20026;-50
2023/07/03 10:40:12;;;;;;;22.88;6.65;;;23.10;57.80;;;;;;5009791;28;20106;-51
2023/07/03 10:42:54;;;;;;;18.35;8.85;;;23.30;57.30;;;;;;5009293;28;20113;-53
2023/07/03 10:45:21;;;;;;;16.55;7.00;;;23.50;54.00;;;;;;5009248;28;20108;-51
2023/07/03 10:47:54;;;;;;;18.80;7.55;;;23.60;55.30;;;;;;5009884;28;20042;-51
2023/07/03 10:50:31;;;;;;;13.55;6.35;;;23.50;55.10;;;;;;5009509;28;20034;-53
2023/07/03 10:53:12;;;;;;;13.90;6.50;;;23.40;53.30;;;;;;5004448;28;20026;-50
2023/07/03 10:55:56;;;;;;;20.80;6.93;;;23.30;55.30;;;;;;5006727;28;20477;-52
2023/07/03 10:58:52;;;;;;;13.45;6.03;;;23.30;54.80;;;;;;5008103;28;20064;-55
2023/07/03 11:01:30;;;;;;;15.52;6.43;;;23.20;55.10;;;;;;4995577;28;20028;-52
2023/07/03 11:04:10;;;;;;;14.05;5.57;;;23.10;54.50;;;;;;5007476;28;20025;-49
2023/07/03 11:07:14;;;;;;;15.27;5.70;;;23.10;53.50;;;;;;5007391;28;20564;-50
2023/07/03 11:10:02;;;;;;;21.90;6.05;;;23.10;53.90;;;;;;5007800;28;20479;-55
2023/07/03 11:12:38;;;;;;;14.88;5.45;;;23.00;54.40;;;;;;5006217;28;20494;-52
2023/07/03 11:15:34;;;;;;;11.32;4.80;;;23.00;54.90;;;;;;5007028;28;20026;-53
2023/07/03 11:18:28;;;;;;;12.93;4.90;;;22.90;54.10;;;;;;5006681;28;20033;-50
2023/07/03 11:21:09;;;;;;;15.32;5.30;;;22.90;53.80;;;;;;5007542;28;20413;-53
2023/07/03 11:23:50;;;;;;;25.85;11.52;;;22.90;51.70;;;;;;5006814;28;20456;-52
2023/07/03 11:26:40;;;;;;;84.40;58.25;;;22.90;52.00;;;;;;5006832;28;20471;-52
2023/07/03 11:29:06;;;;;;;;;;;23.00;52.10;;;;;;5007326;28;20121;-47
2023/07/03 11:31:33;;;;;;;211.13;145.23;;;23.00;52.10;;;;;;5007302;28;19961;-47
2023/07/03 11:33:59;;;;;;;117.57;78.82;;;23.00;52.00;;;;;;5006794;28;20033;-52
2023/07/03 11:36:48;;;;;;;90.18;55.97;;;23.00;51.10;;;;;;5007282;28;20061;-47
2023/07/03 11:39:21;;;;;;;237.75;161.00;;;23.00;51.00;;;;;;5006964;28;20034;-49
2023/07/03 11:42:10;;;;;;;127.63;84.57;;;23.00;51.30;;;;;;5006950;28;20073;-54
2023/07/03 11:44:39;;;;;;;88.47;56.92;;;22.90;51.10;;;;;;4987890;28;20041;-50
2023/07/03 11:47:09;;;;;;;69.38;42.47;;;23.00;49.70;;;;;;5005427;28;20401;-51
2023/07/03 11:49:42;;;;;;;74.53;45.17;;;23.00;49.80;;;;;;5004372;28;20461;-48
2023/07/03 11:52:11;;;;;;;66.32;42.80;;;22.90;50.40;;;;;;5006109;28;20053;-51
2023/07/03 11:54:39;;;;;;;65.55;41.28;;;22.90;50.20;;;;;;5006591;28;20034;-51
2023/07/03 11:57:04;;;;;;;57.58;35.90;;;22.90;50.80;;;;;;5004325;28;20033;-51
2023/07/03 11:59:42;;;;;;;81.60;51.47;;;22.90;50.00;;;;;;5006351;28;20044;-52
2023/07/03 12:02:11;;;;;;;54.65;28.75;;;22.90;52.20;;;;;;5007176;28;20088;-54
2023/07/03 12:04:42;;;;;;;49.10;29.30;;;22.90;50.20;;;;;;5006725;28;20041;-54
2023/07/03 12:07:10;;;;;;;59.42;37.28;;;23.00;49.80;;;;;;5009020;28;20134;-54
2023/07/03 12:09:36;;;;;;;43.15;25.15;;;22.90;51.90;;;;;;5010396;28;20545;-53
2023/07/03 12:12:08;;;;;;;47.00;27.65;;;22.90;50.00;;;;;;5009673;28;20133;-49
2023/07/03 12:14:40;;;;;;;39.15;20.27;;;22.90;50.80;;;;;;5007861;28;20409;-50
2023/07/03 12:17:32;;;;;;;36.13;18.38;;;22.90;50.90;;;;;;5009938;28;20030;-49
2023/07/03 12:20:21;;;;;;;31.05;16.98;;;22.90;51.30;;;;;;5008963;28;20437;-51
2023/07/03 12:22:51;;;;;;;33.90;16.98;;;22.90;51.40;;;;;;5009819;28;20056;-52
2023/07/03 12:25:29;;;;;;;31.67;16.48;;;22.90;51.50;;;;;;5008837;28;20026;-51
2023/07/03 12:28:11;;;;;;;27.88;15.30;;;22.90;51.80;;;;;;5010129;28;20114;-51
2023/07/03 12:30:37;;;;;;;34.45;15.40;;;22.90;52.00;;;;;;5009644;28;20029;-50
2023/07/03 12:33:03;;;;;;;31.02;14.75;;;22.90;52.00;;;;;;5010432;28;20034;-53
2023/07/03 12:35:35;;;;;;;30.33;15.63;;;22.90;52.10;;;;;;5008534;28;20513;-53
2023/07/03 12:38:10;;;;;;;29.77;14.55;;;22.90;52.30;;;;;;5010184;28;20041;-51
2023/07/03 12:40:46;;;;;;;26.48;14.13;;;22.90;52.20;;;;;;5010115;28;20164;-50
2023/07/03 12:43:17;;;;;;;29.38;14.40;;;22.90;52.50;;;;;;5008259;28;20026;-52
2023/07/03 12:45:50;;;;;;;25.30;14.15;;;22.90;52.30;;;;;;5009567;28;20033;-51
2023/07/03 12:48:21;;;;;;;28.02;14.13;;;22.90;52.40;;;;;;5009811;28;20039;-48